createdAt,value
2018-03-28T00:02:03.330Z,7.39
2018-03-28T00:04:31.304Z,7.39
2018-03-28T00:06:58.971Z,7.40
2018-03-28T00:09:26.572Z,7.39
2018-03-28T00:11:54.211Z,7.39
2018-03-28T00:14:21.790Z,7.39
2018-03-28T00:16:49.510Z,7.42
2018-03-28T00:19:17.197Z,7.42
2018-03-28T00:21:44.940Z,7.42
2018-03-28T00:24:12.863Z,7.43
2018-03-28T00:26:40.453Z,7.44
2018-03-28T00:29:08.073Z,7.44
2018-03-28T00:31:35.718Z,7.44
2018-03-28T00:34:03.373Z,7.45
2018-03-28T00:36:31.354Z,7.45
2018-03-28T00:38:58.947Z,7.45
2018-03-28T00:41:27.289Z,7.46
2018-03-28T00:43:54.930Z,7.46
2018-03-28T00:46:22.513Z,7.45
2018-03-28T00:48:50.513Z,7.47
2018-03-28T00:51:36.993Z,7.47
2018-03-28T00:54:04.665Z,7.47
2018-03-28T00:56:32.948Z,7.47
2018-03-28T00:59:00.816Z,7.48
2018-03-28T01:01:28.417Z,7.45
2018-03-28T01:03:56.377Z,7.45
2018-03-28T01:06:23.969Z,7.46
2018-03-28T01:08:51.870Z,7.47
2018-03-28T01:11:19.481Z,7.47
2018-03-28T01:13:47.404Z,7.49
2018-03-28T01:16:15.066Z,7.52
2018-03-28T01:18:42.664Z,7.54
2018-03-28T01:21:10.596Z,7.53
2018-03-28T01:23:38.305Z,7.55
2018-03-28T01:26:05.930Z,7.56
2018-03-28T01:28:33.828Z,7.56
2018-03-28T01:31:01.834Z,7.55
2018-03-28T01:33:29.497Z,7.55
2018-03-28T01:35:57.148Z,7.57
2018-03-28T01:38:24.767Z,7.58
2018-03-28T01:40:52.718Z,7.59
2018-03-28T01:43:20.313Z,7.59
2018-03-28T01:45:48.264Z,7.61
2018-03-28T01:48:15.886Z,7.60
2018-03-28T01:50:43.877Z,7.59
2018-03-28T01:53:11.517Z,7.60
2018-03-28T01:55:39.517Z,7.60
2018-03-28T01:58:07.109Z,7.61
2018-03-28T02:00:34.783Z,7.60
2018-03-28T02:03:02.363Z,7.60
2018-03-28T02:05:29.957Z,7.61
2018-03-28T02:07:57.562Z,7.61
2018-03-28T02:10:25.151Z,7.62
2018-03-28T02:12:52.775Z,7.60
2018-03-28T02:15:20.705Z,7.58
2018-03-28T02:17:48.575Z,7.59
2018-03-28T02:20:16.509Z,7.60
2018-03-28T02:22:44.140Z,7.59
2018-03-28T02:25:12.044Z,7.56
2018-03-28T02:27:40.019Z,7.56
2018-03-28T02:30:07.675Z,7.54
2018-03-28T02:32:35.271Z,7.53
2018-03-28T02:35:02.929Z,7.51
2018-03-28T02:37:30.794Z,7.52
2018-03-28T02:39:58.422Z,7.49
2018-03-28T02:42:26.429Z,7.50
2018-03-28T02:44:54.303Z,7.49
2018-03-28T02:47:21.904Z,7.53
2018-03-28T02:49:49.926Z,7.51
2018-03-28T02:52:17.933Z,7.50
2018-03-28T02:54:45.608Z,7.50
2018-03-28T02:57:13.536Z,7.48
2018-03-28T02:59:41.120Z,7.46
2018-03-28T03:02:09.159Z,7.45
2018-03-28T03:04:37.054Z,7.43
2018-03-28T03:07:04.744Z,7.45
2018-03-28T03:09:32.389Z,7.44
2018-03-28T03:11:59.972Z,7.44
2018-03-28T03:14:27.566Z,7.43
2018-03-28T03:16:55.363Z,7.41
2018-03-28T03:19:22.998Z,7.43
2018-03-28T03:21:50.590Z,7.44
2018-03-28T03:24:18.349Z,7.45
2018-03-28T03:26:46.014Z,7.45
2018-03-28T03:29:13.894Z,7.45
2018-03-28T03:31:41.552Z,7.47
2018-03-28T03:34:09.484Z,7.47
2018-03-28T03:36:37.095Z,7.48
2018-03-28T03:39:04.770Z,7.48
2018-03-28T03:41:32.425Z,7.46
2018-03-28T03:44:00.013Z,7.44
2018-03-28T03:46:27.855Z,7.44
2018-03-28T03:48:55.485Z,7.45
2018-03-28T03:51:23.065Z,7.46
2018-03-28T03:53:50.715Z,7.47
2018-03-28T03:56:18.366Z,7.46
2018-03-28T03:58:46.038Z,7.46
2018-03-28T04:01:13.635Z,7.47
2018-03-28T04:03:41.537Z,7.46
2018-03-28T04:06:09.126Z,7.47
2018-03-28T04:08:36.715Z,7.47
2018-03-28T04:11:04.394Z,7.48
2018-03-28T04:13:31.985Z,7.48
2018-03-28T04:15:59.578Z,7.49
2018-03-28T04:18:27.924Z,7.49
2018-03-28T04:20:55.623Z,7.47
2018-03-28T04:23:23.228Z,7.47
2018-03-28T04:25:50.880Z,7.46
2018-03-28T04:28:18.774Z,7.44
2018-03-28T04:30:46.643Z,7.43
2018-03-28T04:33:14.361Z,7.43
2018-03-28T04:35:42.022Z,7.41
2018-03-28T04:38:09.604Z,7.38
2018-03-28T04:40:37.464Z,7.39
2018-03-28T04:43:05.040Z,7.37
2018-03-28T04:45:32.700Z,7.36
2018-03-28T04:48:00.291Z,7.32
2018-03-28T04:50:27.895Z,7.31
2018-03-28T04:52:55.524Z,7.32
2018-03-28T04:55:23.247Z,7.32
2018-03-28T04:57:50.904Z,7.31
2018-03-28T05:00:18.505Z,7.32
2018-03-28T05:02:46.765Z,7.31
2018-03-28T05:05:14.686Z,7.32
2018-03-28T05:07:42.369Z,7.30
2018-03-28T05:10:10.329Z,7.30
2018-03-28T05:12:38.359Z,7.28
2018-03-28T05:15:05.947Z,7.27
2018-03-28T05:17:33.593Z,7.25
2018-03-28T05:20:01.429Z,7.23
2018-03-28T05:22:29.087Z,7.25
2018-03-28T05:24:57.061Z,7.21
2018-03-28T05:27:24.632Z,7.21
2018-03-28T05:29:52.285Z,7.21
2018-03-28T05:32:20.152Z,7.21
2018-03-28T05:34:47.747Z,7.21
2018-03-28T05:37:15.441Z,7.24
2018-03-28T05:39:43.344Z,7.29
2018-03-28T05:42:10.931Z,7.33
2018-03-28T05:44:39.036Z,7.35
2018-03-28T05:47:06.681Z,7.38
2018-03-28T05:49:34.337Z,7.39
2018-03-28T05:52:02.227Z,7.40
2018-03-28T05:54:29.832Z,7.41
2018-03-28T05:56:57.795Z,7.42
2018-03-28T05:59:25.492Z,7.42
2018-03-28T06:01:53.121Z,7.44
2018-03-28T06:04:20.713Z,7.46
2018-03-28T06:06:48.326Z,7.45
2018-03-28T06:09:15.904Z,7.45
2018-03-28T06:11:43.624Z,7.44
2018-03-28T06:14:11.226Z,7.45
2018-03-28T06:16:38.818Z,7.45
2018-03-28T06:19:06.615Z,7.45
2018-03-28T06:21:34.519Z,7.46
2018-03-28T06:24:02.117Z,7.46
2018-03-28T06:26:29.738Z,7.43
2018-03-28T06:28:57.424Z,7.45
2018-03-28T06:31:25.241Z,7.49
2018-03-28T06:33:52.824Z,7.49
2018-03-28T06:36:20.779Z,7.50
2018-03-28T06:38:48.524Z,7.50
2018-03-28T06:41:17.007Z,7.52
2018-03-28T06:43:44.922Z,7.53
2018-03-28T06:46:12.527Z,7.56
2018-03-28T06:48:40.174Z,7.57
2018-03-28T06:51:07.784Z,7.58
2018-03-28T06:53:35.463Z,7.57
2018-03-28T06:56:03.830Z,7.57
2018-03-28T06:58:31.712Z,7.57
2018-03-28T07:00:59.320Z,7.56
2018-03-28T07:03:26.950Z,7.58
2018-03-28T07:05:54.570Z,7.57
2018-03-28T07:08:22.162Z,7.58
2018-03-28T07:10:49.824Z,7.57
2018-03-28T07:13:17.427Z,7.60
2018-03-28T07:15:45.026Z,7.58
2018-03-28T07:18:12.637Z,7.54
2018-03-28T07:20:40.236Z,7.53
2018-03-28T07:23:07.876Z,7.54
2018-03-28T07:25:35.497Z,7.54
2018-03-28T07:28:03.126Z,7.55
2018-03-28T07:30:30.743Z,7.56
2018-03-28T07:32:58.426Z,7.56
2018-03-28T07:35:26.014Z,7.57
2018-03-28T07:37:53.614Z,7.59
2018-03-28T07:40:21.283Z,7.62
2018-03-28T07:42:48.937Z,7.64
2018-03-28T07:45:16.775Z,7.64
2018-03-28T07:47:44.442Z,7.64
2018-03-28T07:50:12.128Z,7.64
2018-03-28T07:52:39.701Z,7.63
2018-03-28T07:55:07.824Z,7.63
2018-03-28T07:57:35.456Z,7.62
2018-03-28T08:00:03.087Z,7.63
2018-03-28T08:02:30.781Z,7.65
2018-03-28T08:04:58.393Z,7.67
2018-03-28T08:07:25.988Z,7.68
2018-03-28T08:09:53.646Z,7.69
2018-03-28T08:12:21.347Z,7.69
2018-03-28T08:14:49.466Z,7.69
2018-03-28T08:17:17.158Z,7.72
2018-03-28T08:19:45.089Z,7.71
2018-03-28T08:22:12.738Z,7.74
2018-03-28T08:24:40.615Z,7.78
2018-03-28T08:27:08.231Z,7.78
2018-03-28T08:29:35.828Z,7.78
2018-03-28T08:32:03.480Z,7.78
2018-03-28T08:34:31.144Z,7.78
2018-03-28T08:36:58.791Z,7.81
2018-03-28T08:39:26.386Z,7.83
2018-03-28T08:41:54.054Z,7.82
2018-03-28T08:44:22.420Z,7.79
2018-03-28T08:46:50.040Z,7.84
2018-03-28T08:49:17.630Z,7.86
2018-03-28T08:51:45.247Z,7.90
2018-03-28T08:54:12.862Z,7.94
2018-03-28T08:56:40.468Z,7.96
2018-03-28T08:59:08.321Z,7.99
2018-03-28T09:01:35.986Z,8.02
2018-03-28T09:04:03.613Z,8.06
2018-03-28T09:06:31.205Z,8.09
2018-03-28T09:08:59.048Z,8.12
2018-03-28T09:11:27.481Z,8.14
2018-03-28T09:13:55.215Z,8.18
2018-03-28T09:16:23.034Z,8.24
2018-03-28T09:18:50.659Z,8.29
2018-03-28T09:21:18.277Z,8.34
2018-03-28T09:23:45.901Z,8.37
2018-03-28T09:26:13.503Z,8.38
2018-03-28T09:28:41.494Z,8.41
2018-03-28T09:31:09.111Z,8.40
2018-03-28T09:33:36.998Z,8.46
2018-03-28T09:36:04.971Z,8.51
2018-03-28T09:38:32.634Z,8.59
2018-03-28T09:41:00.318Z,8.68
2018-03-28T09:43:27.973Z,8.74
2018-03-28T09:45:55.915Z,8.83
2018-03-28T09:48:23.516Z,8.90
2018-03-28T09:50:51.120Z,8.96
2018-03-28T09:53:18.865Z,9.03
2018-03-28T09:55:46.519Z,9.11
2018-03-28T09:58:14.116Z,9.17
2018-03-28T10:00:41.798Z,9.19
2018-03-28T10:03:12.379Z,9.23
2018-03-28T10:05:40.879Z,9.25
2018-03-28T10:08:08.476Z,9.31
2018-03-28T10:10:36.383Z,9.35
2018-03-28T10:13:04.226Z,9.38
2018-03-28T10:15:31.884Z,9.38
2018-03-28T10:17:59.738Z,9.42
2018-03-28T10:20:27.603Z,9.43
2018-03-28T10:22:55.235Z,9.44
2018-03-28T10:25:23.132Z,9.45
2018-03-28T10:27:50.725Z,9.46
2018-03-28T10:30:18.358Z,9.45
2018-03-28T10:32:46.289Z,9.44
2018-03-28T10:35:14.190Z,9.46
2018-03-28T10:37:41.862Z,9.47
2018-03-28T10:40:09.748Z,9.49
2018-03-28T10:42:37.347Z,9.50
2018-03-28T10:45:04.970Z,9.52
2018-03-28T10:47:32.646Z,9.54
2018-03-28T10:50:00.256Z,9.57
2018-03-28T10:52:27.870Z,9.63
2018-03-28T10:54:55.478Z,9.70
2018-03-28T10:57:23.563Z,9.78
2018-03-28T10:59:51.172Z,9.85
2018-03-28T11:02:18.785Z,9.92
2018-03-28T11:04:46.421Z,9.99
2018-03-28T11:07:14.041Z,10.08
2018-03-28T11:09:41.672Z,10.13
2018-03-28T11:12:09.278Z,10.17
2018-03-28T11:14:36.909Z,10.18
2018-03-28T11:17:04.757Z,10.18
2018-03-28T11:19:32.620Z,10.18
2018-03-28T11:22:00.596Z,10.24
2018-03-28T11:24:28.273Z,10.30
2018-03-28T11:26:55.899Z,10.38
2018-03-28T11:29:23.615Z,10.46
2018-03-28T11:31:51.640Z,10.52
2018-03-28T11:34:19.248Z,10.58
2018-03-28T11:36:46.918Z,10.62
2018-03-28T11:39:14.566Z,10.65
2018-03-28T11:41:42.159Z,10.67
2018-03-28T11:44:10.184Z,10.64
2018-03-28T11:46:37.814Z,10.68
2018-03-28T11:49:05.414Z,10.71
2018-03-28T11:51:33.051Z,10.71
2018-03-28T11:54:00.650Z,10.75
2018-03-28T11:56:28.371Z,10.78
2018-03-28T11:58:55.962Z,10.78
2018-03-28T12:01:23.564Z,10.80
2018-03-28T12:03:51.216Z,10.82
2018-03-28T12:06:18.806Z,10.86
2018-03-28T12:08:46.427Z,10.89
2018-03-28T12:11:14.057Z,10.90
2018-03-28T12:13:41.655Z,10.89
2018-03-28T12:16:09.467Z,10.87
2018-03-28T12:18:37.103Z,10.86
2018-03-28T12:21:04.727Z,10.88
2018-03-28T12:23:32.305Z,10.91
2018-03-28T12:26:00.250Z,10.95
2018-03-28T12:28:28.667Z,10.97
2018-03-28T12:30:56.302Z,11.00
2018-03-28T12:33:23.955Z,11.00
2018-03-28T12:35:51.685Z,11.01
2018-03-28T12:38:19.556Z,11.05
2018-03-28T12:40:47.169Z,10.98
2018-03-28T12:43:14.787Z,10.92
2018-03-28T12:45:42.401Z,10.83
2018-03-28T12:48:10.058Z,10.74
2018-03-28T12:50:38.204Z,10.74
2018-03-28T12:53:05.817Z,10.78
2018-03-28T12:55:33.579Z,10.82
2018-03-28T12:58:01.123Z,10.84
2018-03-28T13:00:28.728Z,10.86
2018-03-28T13:02:56.597Z,10.89
2018-03-28T13:05:24.323Z,10.90
2018-03-28T13:07:51.978Z,10.89
2018-03-28T13:10:19.888Z,10.92
2018-03-28T13:12:47.502Z,10.87
2018-03-28T13:15:15.067Z,10.82
2018-03-28T13:17:43.079Z,10.80
2018-03-28T13:20:10.698Z,10.86
2018-03-28T13:22:38.315Z,10.92
2018-03-28T13:25:06.275Z,11.00
2018-03-28T13:27:33.864Z,11.00
2018-03-28T13:30:01.562Z,10.94
2018-03-28T13:32:29.237Z,10.83
2018-03-28T13:34:57.274Z,10.71
2018-03-28T13:37:24.858Z,10.56
2018-03-28T13:39:52.444Z,10.42
2018-03-28T13:42:21.005Z,10.36
2018-03-28T13:44:48.627Z,10.33
2018-03-28T13:47:16.259Z,10.26
2018-03-28T13:49:43.940Z,10.21
2018-03-28T13:52:11.796Z,10.14
2018-03-28T13:54:39.563Z,10.09
2018-03-28T13:57:07.431Z,10.03
2018-03-28T13:59:35.084Z,10.00
2018-03-28T14:02:02.683Z,9.94
2018-03-28T14:04:30.607Z,9.88
2018-03-28T14:06:58.292Z,9.85
2018-03-28T14:09:26.144Z,9.82
2018-03-28T14:11:53.857Z,9.82
2018-03-28T14:14:21.450Z,9.82
2018-03-28T14:16:49.033Z,9.83
2018-03-28T14:19:16.624Z,9.80
2018-03-28T14:21:44.229Z,9.82
2018-03-28T14:24:11.929Z,9.86
2018-03-28T14:26:39.507Z,9.87
2018-03-28T14:29:07.432Z,9.90
2018-03-28T14:31:35.747Z,9.93
2018-03-28T14:34:03.536Z,9.93
2018-03-28T14:36:31.158Z,9.91
2018-03-28T14:38:59.270Z,9.89
2018-03-28T14:41:27.506Z,9.88
2018-03-28T14:43:55.379Z,9.91
2018-03-28T14:46:23.038Z,9.95
2018-03-28T14:48:50.669Z,9.95
2018-03-28T14:51:18.259Z,9.94
2018-03-28T14:53:46.035Z,9.96
2018-03-28T14:56:13.658Z,9.96
2018-03-28T14:58:41.641Z,9.96
2018-03-28T15:01:09.288Z,9.96
2018-03-28T15:03:36.892Z,9.96
2018-03-28T15:06:04.813Z,9.92
2018-03-28T15:08:33.361Z,9.87
2018-03-28T15:11:00.977Z,9.86
2018-03-28T15:13:28.867Z,9.85
2018-03-28T15:15:56.464Z,9.84
2018-03-28T15:18:24.098Z,9.82
2018-03-28T15:20:51.693Z,9.78
2018-03-28T15:23:19.282Z,9.74
2018-03-28T15:25:47.669Z,9.67
2018-03-28T15:28:15.255Z,9.61
2018-03-28T15:30:42.855Z,9.55
2018-03-28T15:33:10.932Z,9.54
2018-03-28T15:35:38.521Z,9.47
2018-03-28T15:38:06.116Z,9.42
2018-03-28T15:40:33.757Z,9.38
2018-03-28T15:43:02.099Z,9.36
2018-03-28T15:45:30.093Z,9.30
2018-03-28T15:47:57.719Z,9.26
2018-03-28T15:50:25.310Z,9.21
2018-03-28T15:52:53.096Z,9.18
2018-03-28T15:55:20.742Z,9.11
2018-03-28T15:57:48.405Z,9.07
2018-03-28T16:00:16.293Z,9.01
2018-03-28T16:02:43.951Z,9.00
2018-03-28T16:05:11.959Z,8.96
2018-03-28T16:07:39.554Z,8.84
2018-03-28T16:10:07.142Z,8.79
2018-03-28T16:12:34.843Z,8.77
2018-03-28T16:15:02.498Z,8.75
2018-03-28T16:17:30.152Z,8.66
2018-03-28T16:19:57.781Z,8.62
2018-03-28T16:22:25.432Z,8.61
2018-03-28T16:24:53.098Z,8.58
2018-03-28T16:27:20.728Z,8.57
2018-03-28T16:29:48.437Z,8.57
2018-03-28T16:32:16.458Z,8.54
2018-03-28T16:34:44.139Z,8.49
2018-03-28T16:37:11.846Z,8.45
2018-03-28T16:39:39.504Z,8.40
2018-03-28T16:42:07.101Z,8.39
2018-03-28T16:44:34.709Z,8.36
2018-03-28T16:47:02.338Z,8.35
2018-03-28T16:49:30.341Z,8.31
2018-03-28T16:51:58.603Z,8.17
2018-03-28T16:54:26.180Z,8.19
2018-03-28T16:56:53.774Z,8.18
2018-03-28T16:59:21.783Z,8.12
2018-03-28T17:01:49.776Z,8.12
2018-03-28T17:04:17.742Z,8.12
2018-03-28T17:06:45.348Z,8.11
2018-03-28T17:09:13.080Z,8.10
2018-03-28T17:11:41.145Z,8.09
2018-03-28T17:14:08.813Z,8.03
2018-03-28T17:16:36.485Z,7.92
2018-03-28T17:19:04.135Z,7.89
2018-03-28T17:21:31.799Z,7.85
2018-03-28T17:23:59.403Z,7.86
2018-03-28T17:26:27.015Z,7.79
2018-03-28T17:28:54.639Z,7.77
2018-03-28T17:31:22.570Z,7.79
2018-03-28T17:33:50.221Z,7.79
2018-03-28T17:36:17.854Z,7.80
2018-03-28T17:38:45.421Z,7.79
2018-03-28T17:41:13.118Z,7.78
2018-03-28T17:43:40.718Z,7.74
2018-03-28T17:46:08.292Z,7.71
2018-03-28T17:48:36.385Z,7.69
2018-03-28T17:51:03.971Z,7.67
2018-03-28T17:53:31.613Z,7.66
2018-03-28T17:55:59.574Z,7.67
2018-03-28T17:58:27.152Z,7.69
2018-03-28T18:00:54.774Z,7.72
2018-03-28T18:03:22.418Z,7.72
2018-03-28T18:05:50.039Z,7.73
2018-03-28T18:08:17.624Z,7.75
2018-03-28T18:10:45.281Z,7.78
2018-03-28T18:13:12.972Z,7.79
2018-03-28T18:15:40.952Z,7.80
2018-03-28T18:18:08.551Z,7.79
2018-03-28T18:20:36.503Z,7.75
2018-03-28T18:23:04.249Z,7.72
2018-03-28T18:25:31.873Z,7.70
2018-03-28T18:27:59.791Z,7.72
2018-03-28T18:30:27.476Z,7.65
2018-03-28T18:32:55.069Z,7.60
2018-03-28T18:35:22.691Z,7.54
2018-03-28T18:37:50.264Z,7.50
2018-03-28T18:40:17.908Z,7.41
2018-03-28T18:42:45.492Z,7.34
2018-03-28T18:45:13.169Z,7.33
2018-03-28T18:47:41.266Z,7.27
2018-03-28T18:50:08.920Z,7.22
2018-03-28T18:52:37.391Z,7.16
2018-03-28T18:55:05.078Z,7.08
2018-03-28T18:57:32.976Z,7.05
2018-03-28T19:00:00.559Z,7.01
2018-03-28T19:02:28.512Z,6.92
2018-03-28T19:04:56.120Z,6.89
2018-03-28T19:07:23.814Z,6.87
2018-03-28T19:09:51.519Z,6.84
2018-03-28T19:12:19.185Z,6.85
2018-03-28T19:14:46.916Z,6.80
2018-03-28T19:17:14.835Z,6.80
2018-03-28T19:19:42.748Z,6.79
2018-03-28T19:22:10.411Z,6.79
2018-03-28T19:24:38.023Z,6.77
2018-03-28T19:27:05.677Z,6.72
2018-03-28T19:29:33.282Z,6.68
2018-03-28T19:32:00.890Z,6.70
2018-03-28T19:34:28.552Z,6.70
2018-03-28T19:36:56.148Z,6.68
2018-03-28T19:39:23.824Z,6.68
2018-03-28T19:41:51.482Z,6.67
2018-03-28T19:44:19.154Z,6.64
2018-03-28T19:46:46.763Z,6.63
2018-03-28T19:49:14.707Z,6.60
2018-03-28T19:51:42.389Z,6.47
2018-03-28T19:54:10.227Z,6.44
2018-03-28T19:56:37.951Z,6.43
2018-03-28T19:59:05.516Z,6.40
2018-03-28T20:01:33.139Z,6.31
2018-03-28T20:04:01.190Z,6.21
2018-03-28T20:06:28.796Z,6.10
2018-03-28T20:08:56.385Z,6.04
2018-03-28T20:11:24.072Z,5.96
2018-03-28T20:13:51.882Z,5.85
2018-03-28T20:16:19.492Z,5.77
2018-03-28T20:18:47.371Z,5.75
2018-03-28T20:21:15.391Z,5.69
2018-03-28T20:23:42.953Z,5.65
2018-03-28T20:26:10.679Z,5.52
2018-03-28T20:28:38.551Z,5.47
2018-03-28T20:31:06.135Z,5.34
2018-03-28T20:33:33.706Z,5.34
2018-03-28T20:36:01.313Z,5.30
2018-03-28T20:38:29.394Z,5.16
2018-03-28T20:40:57.254Z,5.10
2018-03-28T20:43:24.918Z,4.99
2018-03-28T20:45:52.598Z,5.01
2018-03-28T20:48:20.546Z,4.90
2018-03-28T20:50:48.595Z,4.87
2018-03-28T20:53:16.251Z,4.88
2018-03-28T20:55:43.842Z,4.92
2018-03-28T20:58:11.472Z,4.93
2018-03-28T21:00:39.060Z,4.87
2018-03-28T21:03:07.125Z,4.91
2018-03-28T21:05:34.775Z,4.91
2018-03-28T21:08:02.369Z,4.95
2018-03-28T21:10:29.973Z,4.95
2018-03-28T21:12:57.578Z,4.92
2018-03-28T21:15:25.528Z,4.96
2018-03-28T21:17:53.127Z,4.89
2018-03-28T21:20:20.784Z,4.90
2018-03-28T21:23:02.363Z,4.82
2018-03-28T21:25:31.852Z,4.77
2018-03-28T21:28:00.139Z,4.80
2018-03-28T21:30:28.880Z,4.79
2018-03-28T21:32:57.010Z,4.79
2018-03-28T21:35:24.810Z,4.72
2018-03-28T21:37:52.456Z,4.58
2018-03-28T21:40:20.111Z,4.59
2018-03-28T21:42:47.839Z,4.62
2018-03-28T21:45:15.827Z,4.59
2018-03-28T21:47:43.412Z,4.48
2018-03-28T21:50:11.126Z,4.38
2018-03-28T21:52:38.808Z,4.44
2018-03-28T21:55:06.385Z,4.43
2018-03-28T21:57:34.083Z,4.39
2018-03-28T22:00:01.912Z,4.33
2018-03-28T22:02:29.516Z,4.27
2018-03-28T22:04:57.193Z,4.26
2018-03-28T22:07:24.756Z,4.24
2018-03-28T22:09:52.334Z,4.26
2018-03-28T22:12:20.044Z,4.21
2018-03-28T22:14:47.976Z,4.26
2018-03-28T22:17:15.585Z,4.23
2018-03-28T22:19:43.271Z,4.21
2018-03-28T22:22:10.858Z,4.15
2018-03-28T22:24:38.535Z,4.14
2018-03-28T22:27:06.195Z,4.21
2018-03-28T22:29:34.165Z,4.26
2018-03-28T22:32:01.746Z,4.24
2018-03-28T22:34:29.330Z,4.25
2018-03-28T22:36:57.661Z,4.28
2018-03-28T22:39:25.265Z,4.28
2018-03-28T22:41:52.929Z,4.26
2018-03-28T22:44:20.713Z,4.26
2018-03-28T22:46:48.374Z,4.28
2018-03-28T22:49:16.003Z,4.31
2018-03-28T22:51:43.634Z,4.33
2018-03-28T22:54:11.284Z,4.31
2018-03-28T22:56:38.894Z,4.30
2018-03-28T22:59:06.497Z,4.29
2018-03-28T23:01:34.493Z,4.30
2018-03-28T23:04:02.065Z,4.29
2018-03-28T23:06:29.652Z,4.35
2018-03-28T23:08:57.286Z,4.28
2018-03-28T23:11:24.911Z,4.25
2018-03-28T23:13:52.513Z,4.26
2018-03-28T23:16:20.228Z,4.27
2018-03-28T23:18:47.814Z,4.26
2018-03-28T23:21:15.652Z,4.25
2018-03-28T23:23:43.338Z,4.32
2018-03-28T23:26:10.956Z,4.27
2018-03-28T23:28:38.571Z,4.29
2018-03-28T23:31:06.176Z,4.31
2018-03-28T23:33:33.787Z,4.35
2018-03-28T23:36:01.428Z,4.32
2018-03-28T23:38:29.000Z,4.33
2018-03-28T23:40:56.645Z,4.36
2018-03-28T23:43:24.324Z,4.38
2018-03-28T23:45:51.901Z,4.41
2018-03-28T23:48:19.539Z,4.41
2018-03-28T23:50:47.142Z,4.42
2018-03-28T23:53:14.852Z,4.44
2018-03-28T23:55:42.433Z,4.47
2018-03-28T23:58:10.089Z,4.48
